Time;durP1;ratioP1;P1;durP2;ratioP2;P2;SDS_P1;SDS_P2;PMS_P1;PMS_P2;Temp;Humidity;BMP_temperature;BMP_pressure;BME280_temperature;BME280_humidity;BME280_pressure;Samples;Min_cycle;Max_cycle;Signal;HPM_P1;HPM_P2
2020/12/25 00:00:33;;;;;;;;;;;;;;;-10.03;75.72;101408.78;1779114;81;20128;-39
2020/12/25 00:03:01;;;;;;;;;;;;;;;-10.03;75.75;101408.78;1778840;81;20124;-40
2020/12/25 00:05:32;;;;;;;;;;;;;;;-10.05;75.80;101406.92;1784177;79;20427;-38
2020/12/25 00:08:00;;;;;;;;;;;;;;;-10.07;75.90;101411.48;1779318;79;20263;-41
2020/12/25 00:10:27;;;;;;;;;;;;;;;-10.08;75.97;101405.91;1778863;81;20459;-39
2020/12/25 00:12:55;;;;;;;;;;;;;;;-10.09;76.02;101401.98;1779256;80;20376;-40
2020/12/25 00:15:23;;;;;;;;;;;;;;;-10.12;76.10;101400.12;1778793;81;20214;-39
2020/12/25 00:17:50;;;;;;;;;;;;;;;-10.13;76.19;101388.20;1778963;81;20277;-40
2020/12/25 00:20:19;;;;;;;;;;;;;;;-10.15;76.29;101392.64;1779157;80;20481;-39
2020/12/25 00:22:46;;;;;;;;;;;;;;;-10.17;76.39;101377.34;1778949;80;20186;-37
2020/12/25 00:25:14;;;;;;;;;;;;;;;-10.18;76.49;101373.07;1778999;81;20182;-39
2020/12/25 00:27:43;;;;;;;;;;;;;;;-10.18;76.55;101378.52;1778970;81;20284;-39
2020/12/25 00:30:10;;;;;;;;;;;;;;;-10.21;76.62;101371.55;1778960;80;20138;-39
2020/12/25 00:32:38;;;;;;;;;;;;;;;-10.21;76.69;101369.41;1779284;81;20158;-39
2020/12/25 00:35:06;;;;;;;;;;;;;;;-10.23;76.79;101373.08;1778921;81;20190;-39
2020/12/25 00:37:34;;;;;;;;;;;;;;;-10.24;76.89;101365.38;1779059;80;20190;-39
2020/12/25 00:40:04;;;;;;;;;;;;;;;-10.26;76.99;101358.92;1778841;80;20197;-39
2020/12/25 00:42:31;;;;;;;;;;;;;;;-10.29;77.14;101349.80;1779205;80;20166;-39
2020/12/25 00:44:59;;;;;;;;;;;;;;;-10.30;77.29;101345.50;1779043;81;20248;-38
2020/12/25 00:47:27;;;;;;;;;;;;;;;-10.30;77.44;101333.20;1779223;80;20260;-38
2020/12/25 00:49:55;;;;;;;;;;;;;;;-10.30;77.62;101334.09;1778981;80;20297;-41
2020/12/25 00:52:24;;;;;;;;;;;;;;;-10.31;77.79;101329.82;1779012;81;20170;-38
2020/12/25 00:54:53;;;;;;;;;;;;;;;-10.30;77.97;101322.69;1778859;80;20237;-39
2020/12/25 00:57:21;;;;;;;;;;;;;;;-10.31;78.11;101315.88;1778930;81;20248;-38
2020/12/25 01:00:03;;;;;;;;;;;;;;;-10.33;78.28;101311.45;1779100;80;20142;-39
2020/12/25 01:02:31;;;;;;;;;;;;;;;-10.32;78.47;101315.37;1779023;81;20189;-40
2020/12/25 01:04:59;;;;;;;;;;;;;;;-10.30;78.70;101316.73;1778880;80;20398;-38
2020/12/25 01:07:27;;;;;;;;;;;;;;;-10.29;78.89;101309.63;1778999;81;20283;-39
2020/12/25 01:09:54;;;;;;;;;;;;;;;-10.27;79.17;101300.12;1779033;81;20144;-39
2020/12/25 01:12:22;;;;;;;;;;;;;;;-10.23;79.50;101298.30;1779082;81;20171;-40
2020/12/25 01:14:49;;;;;;;;;;;;;;;-10.16;79.83;101299.61;1779130;81;20140;-37
2020/12/25 01:17:17;;;;;;;;;;;;;;;-10.10;80.08;101294.62;1779141;81;20155;-38
2020/12/25 01:19:44;;;;;;;;;;;;;;;-10.07;80.25;101283.45;1779156;81;20159;-38
2020/12/25 01:22:12;;;;;;;;;;;;;;;-10.02;80.59;101280.36;1778864;81;20263;-39
2020/12/25 01:24:40;;;;;;;;;;;;;;;-9.98;80.84;101279.84;1781244;79;20138;-40
2020/12/25 01:27:07;;;;;;;;;;;;;;;-9.93;81.10;101275.98;1806465;79;20130;-41
2020/12/25 01:29:35;;;;;;;;;;;;;;;-9.92;81.33;101277.75;1810654;79;20170;-38
2020/12/25 01:32:03;;;;;;;;;;;;;;;-9.89;81.63;101282.65;1810782;79;20236;-39
2020/12/25 01:34:33;;;;;;;;;;;;;;;-9.85;81.83;101277.44;1810730;79;20134;-40
2020/12/25 01:37:00;;;;;;;;;;;;;;;-9.82;82.14;101279.80;1810580;79;20142;-38
2020/12/25 01:39:28;;;;;;;;;;;;;;;-9.77;82.42;101256.02;1810598;79;20126;-38
2020/12/25 01:41:56;;;;;;;;;;;;;;;-9.71;82.74;101266.61;1810571;79;20220;-39
2020/12/25 01:44:23;;;;;;;;;;;;;;;-9.69;82.87;101262.55;1810723;79;20266;-38
2020/12/25 01:46:51;;;;;;;;;;;;;;;-9.68;82.97;101266.84;1810810;79;20240;-39
2020/12/25 01:49:19;;;;;;;;;;;;;;;-9.68;83.07;101258.85;1810813;79;20212;-39
2020/12/25 01:51:47;;;;;;;;;;;;;;;-9.65;83.21;101254.40;1810858;79;20225;-38
2020/12/25 01:54:15;;;;;;;;;;;;;;;-9.62;83.33;101247.37;1810614;79;20134;-38
2020/12/25 01:56:43;;;;;;;;;;;;;;;-9.60;83.42;101245.84;1810856;79;20290;-38
2020/12/25 01:59:11;;;;;;;;;;;;;;;-9.60;83.47;101245.84;1810791;79;20435;-38
2020/12/25 02:01:39;;;;;;;;;;;;;;;-9.59;83.53;101249.77;1810745;79;20156;-38
2020/12/25 02:04:07;;;;;;;;;;;;;;;-9.60;83.54;101249.27;1810875;79;20177;-40
2020/12/25 02:06:43;;;;;;;;;;;;;;;-9.63;83.52;101245.22;1810506;79;20193;-38
2020/12/25 02:09:12;;;;;;;;;;;;;;;-9.64;83.55;101247.64;1810535;79;20193;-45
2020/12/25 02:11:39;;;;;;;;;;;;;;;-9.65;83.59;101243.37;1810509;79;20383;-39
2020/12/25 02:14:07;;;;;;;;;;;;;;;-9.68;83.63;101235.14;1810794;79;20236;-38
2020/12/25 02:16:35;;;;;;;;;;;;;;;-9.70;83.65;101240.48;1810703;79;20152;-38
2020/12/25 02:19:03;;;;;;;;;;;;;;;-9.75;83.70;101221.13;1810649;79;20173;-39
2020/12/25 02:21:31;;;;;;;;;;;;;;;-9.75;83.78;101222.40;1810839;79;20197;-39
2020/12/25 02:26:51;;;;;;;;;;;;;;;-9.76;84.02;101213.02;1913297;74;20248;-42
2020/12/25 02:29:18;;;;;;;;;;;;;;;-9.80;84.17;101225.38;1881631;75;20421;-38
2020/12/25 02:31:46;;;;;;;;;;;;;;;-9.78;84.36;101222.16;1903052;75;20128;-37
2020/12/25 02:34:14;;;;;;;;;;;;;;;-9.75;84.50;101235.47;1903080;75;20235;-38
2020/12/25 02:36:42;;;;;;;;;;;;;;;-9.75;84.59;101225.32;1903271;75;20140;-40
2020/12/25 02:39:10;;;;;;;;;;;;;;;-9.71;84.80;101241.24;1903064;75;20132;-38
2020/12/25 02:41:38;;;;;;;;;;;;;;;-9.70;84.93;101236.29;1903333;75;20294;-38
2020/12/25 02:44:05;;;;;;;;;;;;;;;-9.68;85.04;101227.53;1902940;75;20421;-39
2020/12/25 02:46:33;;;;;;;;;;;;;;;-9.64;85.21;101219.73;1903092;75;20159;-40
2020/12/25 02:49:01;;;;;;;;;;;;;;;-9.62;85.30;101214.02;1903008;75;20171;-38
2020/12/25 02:51:28;;;;;;;;;;;;;;;-9.58;85.39;101217.25;1903198;75;20502;-39
2020/12/25 02:53:57;;;;;;;;;;;;;;;-9.54;85.45;101210.75;1903335;75;20187;-37
2020/12/25 02:56:24;;;;;;;;;;;;;;;-9.50;85.49;101208.91;1902814;75;20136;-38
2020/12/25 02:58:52;;;;;;;;;;;;;;;-9.47;85.53;101209.15;1903382;75;20120;-38
2020/12/25 03:01:20;;;;;;;;;;;;;;;-9.45;85.59;101202.53;1902911;75;20132;-38
2020/12/25 03:03:48;;;;;;;;;;;;;;;-9.42;85.64;101196.39;1903227;75;20159;-39
2020/12/25 03:06:15;;;;;;;;;;;;;;;-9.42;85.61;101197.27;1902947;75;20128;-39
2020/12/25 03:08:42;;;;;;;;;;;;;;;-9.40;85.66;101198.27;1902864;75;20144;-39
2020/12/25 03:11:11;;;;;;;;;;;;;;;-9.38;85.70;101199.63;1903359;75;20187;-39
2020/12/25 03:13:39;;;;;;;;;;;;;;;-9.40;85.71;101191.92;1903074;75;20160;-39
2020/12/25 03:16:07;;;;;;;;;;;;;;;-9.40;85.76;101198.27;1902842;75;20258;-39
2020/12/25 03:18:35;;;;;;;;;;;;;;;-9.39;85.80;101200.05;1902947;75;20128;-37
2020/12/25 03:21:02;;;;;;;;;;;;;;;-9.37;85.90;101203.55;1898456;75;20254;-38
2020/12/25 03:23:30;;;;;;;;;;;;;;;-9.36;85.98;101206.59;1867919;77;20157;-39
2020/12/25 03:25:57;;;;;;;;;;;;;;;-9.35;86.06;101204.55;1867800;77;20122;-40
2020/12/25 03:28:25;;;;;;;;;;;;;;;-9.34;86.10;101203.77;1868263;77;20134;-39
2020/12/25 03:30:53;;;;;;;;;;;;;;;-9.32;86.18;101193.73;1867944;77;20162;-38
2020/12/25 03:33:21;;;;;;;;;;;;;;;-9.28;86.33;101200.39;1868066;77;20122;-38
2020/12/25 03:35:50;;;;;;;;;;;;;;;-9.24;86.40;101198.94;1867774;77;20122;-39
2020/12/25 03:38:18;;;;;;;;;;;;;;;-9.21;86.45;101192.81;1867489;77;20229;-38
2020/12/25 03:40:46;;;;;;;;;;;;;;;-9.20;86.47;101197.52;1867449;77;20285;-40
2020/12/25 03:43:14;;;;;;;;;;;;;;;-9.18;86.49;101198.47;1867493;77;20181;-39
2020/12/25 03:45:42;;;;;;;;;;;;;;;-9.17;86.52;101187.16;1867316;77;20198;-38
2020/12/25 03:48:09;;;;;;;;;;;;;;;-9.15;86.60;101188.55;1867275;77;20138;-39
2020/12/25 03:50:37;;;;;;;;;;;;;;;-9.14;86.66;101192.85;1866972;77;20174;-38
2020/12/25 03:53:04;;;;;;;;;;;;;;;-9.13;86.65;101198.05;1867270;77;20131;-39
2020/12/25 03:55:32;;;;;;;;;;;;;;;-9.12;86.72;101195.97;1867323;77;20467;-39
2020/12/25 03:58:00;;;;;;;;;;;;;;;-9.09;86.79;101197.86;1867583;77;20138;-38
2020/12/25 04:00:27;;;;;;;;;;;;;;;-9.09;86.83;101186.05;1879013;75;20138;-38
2020/12/25 04:02:55;;;;;;;;;;;;;;;-9.08;86.86;101190.73;1867512;77;20130;-38
2020/12/25 04:05:24;;;;;;;;;;;;;;;-9.11;86.92;101185.43;1867210;77;20153;-39
2020/12/25 04:07:51;;;;;;;;;;;;;;;-9.13;87.03;101180.27;1867234;77;20178;-38
2020/12/25 04:10:19;;;;;;;;;;;;;;;-9.12;87.16;101176.08;1871177;75;20131;-40
2020/12/25 04:12:46;;;;;;;;;;;;;;;-9.12;87.29;101176.08;1867104;77;20161;-39
2020/12/25 04:15:14;;;;;;;;;;;;;;;-9.13;87.35;101171.39;1867424;77;20396;-39
2020/12/25 04:17:42;;;;;;;;;;;;;;;-9.10;87.45;101170.69;1867350;77;20190;-39
2020/12/25 04:20:10;;;;;;;;;;;;;;;-9.09;87.51;101169.53;1867382;77;20233;-40
2020/12/25 04:22:38;;;;;;;;;;;;;;;-9.10;87.57;101157.61;1867542;77;20229;-38
2020/12/25 04:25:06;;;;;;;;;;;;;;;-9.08;87.67;101156.07;1867247;77;20178;-39
2020/12/25 04:27:36;;;;;;;;;;;;;;;-9.09;87.77;101150.88;1867126;77;20538;-40
2020/12/25 04:30:04;;;;;;;;;;;;;;;-9.07;87.94;101159.49;1867340;77;20182;-39
2020/12/25 04:32:36;;;;;;;;;;;;;;;-9.05;88.09;101149.91;1867403;77;20142;-39
2020/12/25 04:35:04;;;;;;;;;;;;;;;-9.04;88.29;101145.33;1867182;76;20138;-38
2020/12/25 04:37:32;;;;;;;;;;;;;;;-9.02;88.49;101139.09;1867419;77;20455;-40
2020/12/25 04:40:00;;;;;;;;;;;;;;;-9.01;88.64;101139.20;1869164;75;20332;-40
2020/12/25 04:42:28;;;;;;;;;;;;;;;-8.98;88.78;101131.78;1867284;77;20320;-39
2020/12/25 04:44:56;;;;;;;;;;;;;;;-8.94;88.91;101130.34;1867344;77;20284;-40
2020/12/25 04:47:24;;;;;;;;;;;;;;;-8.91;89.00;101124.18;1867572;77;20269;-40
2020/12/25 04:49:51;;;;;;;;;;;;;;;-8.87;89.04;101128.70;1867795;75;20176;-38
2020/12/25 04:52:19;;;;;;;;;;;;;;;-8.84;89.13;101117.47;1882481;75;20167;-40
2020/12/25 04:54:48;;;;;;;;;;;;;;;-8.79;89.21;101111.02;1899297;75;20167;-40
2020/12/25 04:57:16;;;;;;;;;;;;;;;-8.76;89.32;101108.70;1869044;75;20197;-41
2020/12/25 04:59:44;;;;;;;;;;;;;;;-8.73;89.42;101111.46;1869041;75;20130;-40
2020/12/25 05:02:12;;;;;;;;;;;;;;;-8.69;89.54;101103.64;1863732;77;20384;-40
2020/12/25 05:04:40;;;;;;;;;;;;;;;-8.62;89.61;101101.99;1866785;75;20221;-40
2020/12/25 05:07:09;;;;;;;;;;;;;;;-8.57;89.66;101096.42;1834683;77;20217;-38
2020/12/25 05:09:36;;;;;;;;;;;;;;;-8.54;89.72;101101.72;1834333;77;20201;-40
2020/12/25 05:12:04;;;;;;;;;;;;;;;-8.51;89.80;101091.73;1866970;77;20288;-39
2020/12/25 05:14:33;;;;;;;;;;;;;;;-8.43;89.91;101082.46;1867499;77;20229;-40
2020/12/25 05:17:01;;;;;;;;;;;;;;;-8.38;89.97;101074.34;1867108;77;20146;-42
2020/12/25 05:19:30;;;;;;;;;;;;;;;-8.34;89.98;101075.44;1867270;77;20122;-40
2020/12/25 05:21:59;;;;;;;;;;;;;;;-8.31;89.93;101063.79;1867068;77;20178;-41
2020/12/25 05:24:27;;;;;;;;;;;;;;;-8.27;89.94;101061.88;1873362;75;20251;-40
2020/12/25 05:26:55;;;;;;;;;;;;;;;-8.22;89.96;101054.57;1867044;77;20135;-39
2020/12/25 05:29:24;;;;;;;;;;;;;;;-8.17;89.99;101068.45;1833934;77;20150;-39
2020/12/25 05:31:52;;;;;;;;;;;;;;;-8.14;90.04;101059.33;1867221;75;20139;-40
2020/12/25 05:34:21;;;;;;;;;;;;;;;-8.06;90.12;101050.92;1867509;75;20130;-41
2020/12/25 05:36:52;;;;;;;;;;;;;;;-7.99;90.16;101050.52;1824620;78;20164;-39
2020/12/25 05:39:30;;;;;;;;;;;;;;;-7.92;90.20;101046.30;1829482;78;20141;-41
2020/12/25 05:42:00;;;;;;;;;;;;;;;-7.87;90.22;101039.83;1809493;78;20195;-36
2020/12/25 05:44:30;;;;;;;;;;;;;;;-7.81;90.27;101026.21;1796817;80;20507;-41
2020/12/25 05:46:58;;;;;;;;;;;;;;;-7.74;90.36;101031.28;1805031;79;20316;-40
2020/12/25 05:49:27;;;;;;;;;;;;;;;-7.65;90.45;101037.83;1808782;78;20303;-40
2020/12/25 05:51:56;;;;;;;;;;;;;;;-7.57;90.49;101029.78;1748966;78;20133;-38
2020/12/25 05:54:25;;;;;;;;;;;;;;;-7.48;90.52;101027.80;1799636;78;20183;-40
2020/12/25 05:56:57;;;;;;;;;;;;;;;-7.40;90.53;101038.03;1828951;78;20125;-38
2020/12/25 05:59:27;;;;;;;;;;;;;;;-7.32;90.49;101036.83;1805734;78;20137;-40
2020/12/25 06:02:00;;;;;;;;;;;;;;;-7.24;90.41;101036.89;1829243;78;20141;-39
2020/12/25 06:04:30;;;;;;;;;;;;;;;-7.19;90.37;101036.77;1829388;78;20204;-40
2020/12/25 06:06:58;;;;;;;;;;;;;;;-7.14;90.35;101034.09;1829518;78;20125;-41
2020/12/25 06:09:30;;;;;;;;;;;;;;;-7.08;90.34;101036.11;1828953;78;20271;-41
2020/12/25 06:11:58;;;;;;;;;;;;;;;-7.03;90.33;101041.11;1825381;78;20228;-39
2020/12/25 06:14:25;;;;;;;;;;;;;;;-6.97;90.32;101038.91;1845206;77;20273;-40
2020/12/25 06:17:07;;;;;;;;;;;;;;;-6.91;90.31;101036.33;1838328;77;20197;-43
2020/12/25 06:19:45;;;;;;;;;;;;;;;-6.86;90.24;101040.02;1829542;78;20204;-42
2020/12/25 06:22:25;;;;;;;;;;;;;;;-6.79;90.17;101037.42;1828415;78;20387;-41
2020/12/25 06:26:54;;;;;;;;;;;;;;;-6.63;90.08;101036.64;1889193;74;20319;-42
2020/12/25 06:29:22;;;;;;;;;;;;;;;-6.64;89.93;101044.69;1844384;75;20160;-38
2020/12/25 06:31:51;;;;;;;;;;;;;;;-6.61;89.80;101044.84;1845727;74;20229;-42
2020/12/25 06:34:19;;;;;;;;;;;;;;;-6.55;89.71;101043.03;1853897;75;20202;-40
2020/12/25 06:36:47;;;;;;;;;;;;;;;-6.54;89.51;101038.03;1892373;75;20307;-41
2020/12/25 06:39:17;;;;;;;;;;;;;;;-6.54;89.35;101045.67;1868290;75;20161;-39
2020/12/25 06:41:44;;;;;;;;;;;;;;;-6.54;89.27;101036.75;1876396;75;20195;-40
2020/12/25 06:44:16;;;;;;;;;;;;;;;-6.52;89.23;101039.39;1855196;75;20231;-43
2020/12/25 06:46:48;;;;;;;;;;;;;;;-6.49;89.19;101047.20;1876226;75;20228;-40
2020/12/25 06:49:16;;;;;;;;;;;;;;;-6.45;89.14;101052.98;1899006;74;20736;-40
2020/12/25 06:51:44;;;;;;;;;;;;;;;-6.43;89.06;101055.19;1882120;75;20132;-42
2020/12/25 06:54:23;;;;;;;;;;;;;;;-6.42;89.05;101048.03;1893961;75;20268;-40
2020/12/25 06:56:54;;;;;;;;;;;;;;;-6.37;89.04;101050.47;1885745;76;20548;-39
2020/12/25 06:59:23;;;;;;;;;;;;;;;-6.32;88.98;101057.98;1864572;75;20264;-40
2020/12/25 07:01:55;;;;;;;;;;;;;;;-6.31;88.99;101058.86;1912292;75;20178;-43
2020/12/25 07:04:31;;;;;;;;;;;;;;;-6.29;89.05;101049.59;1904584;75;20492;-39
2020/12/25 07:07:02;;;;;;;;;;;;;;;-6.28;89.09;101045.86;1878196;75;20290;-41
2020/12/25 07:09:47;;;;;;;;;;;;;;;-6.25;89.21;101046.05;1893112;75;20215;-41
2020/12/25 07:12:18;;;;;;;;;;;;;;;-6.21;89.34;101045.41;1873227;74;20291;-39
2020/12/25 07:14:46;;;;;;;;;;;;;;;-6.19;89.51;101049.33;1886622;74;20204;-38
2020/12/25 07:17:14;;;;;;;;;;;;;;;-6.17;89.66;101043.93;1927384;74;20285;-40
2020/12/25 07:19:45;;;;;;;;;;;;;;;-6.16;89.71;101050.76;1911601;74;20207;-42
2020/12/25 07:22:13;;;;;;;;;;;;;;;-6.16;89.68;101042.71;1904383;74;20134;-43
2020/12/25 07:24:41;;;;;;;;;;;;;;;-6.15;89.71;101055.95;1925151;74;20144;-53
2020/12/25 07:27:10;;;;;;;;;;;;;;;-6.11;89.73;101057.02;1902099;75;20548;-41
2020/12/25 07:29:40;;;;;;;;;;;;;;;-6.09;89.70;101060.13;1898799;74;20227;-43
2020/12/25 07:32:11;;;;;;;;;;;;;;;-6.07;89.63;101059.81;1897689;74;20188;-40
2020/12/25 07:34:39;;;;;;;;;;;;;;;-6.09;89.38;101059.23;1886922;74;20168;-41
2020/12/25 07:37:09;;;;;;;;;;;;;;;-6.16;89.16;101053.31;1881366;75;20350;-41
2020/12/25 07:39:37;;;;;;;;;;;;;;;-6.23;89.08;101046.11;1882945;75;20167;-41
2020/12/25 07:42:07;;;;;;;;;;;;;;;-6.29;89.05;101042.83;1894645;74;20457;-40
2020/12/25 07:44:34;;;;;;;;;;;;;;;-6.35;88.95;101036.11;1888155;74;20203;-41
2020/12/25 07:47:01;;;;;;;;;;;;;;;-6.45;88.76;101036.41;1897079;74;20196;-41
2020/12/25 07:49:29;;;;;;;;;;;;;;;-6.54;88.72;101037.14;1897417;75;20290;-42
2020/12/25 07:51:58;;;;;;;;;;;;;;;-6.59;88.83;101036.02;1901717;74;20183;-40
2020/12/25 07:54:26;;;;;;;;;;;;;;;-6.62;88.94;101027.78;1889059;74;20184;-40
2020/12/25 07:56:55;;;;;;;;;;;;;;;-6.60;89.08;101026.60;1899353;74;20340;-41
2020/12/25 07:59:23;;;;;;;;;;;;;;;-6.61;89.14;101029.55;1898048;74;20291;-40
2020/12/25 08:01:51;;;;;;;;;;;;;;;-6.60;89.24;101031.70;1892258;74;20175;-39
2020/12/25 08:04:19;;;;;;;;;;;;;;;-6.59;89.31;101039.44;1893453;74;20192;-40
2020/12/25 08:06:46;;;;;;;;;;;;;;;-6.54;89.40;101058.42;1897807;74;20247;-41
2020/12/25 08:09:13;;;;;;;;;;;;;;;-6.53;89.38;101060.19;1894891;74;20208;-42
2020/12/25 08:11:43;;;;;;;;;;;;;;;-6.53;89.32;101054.20;1849006;75;20289;-43
2020/12/25 08:14:11;;;;;;;;;;;;;;;-6.51;89.31;101044.98;1892926;74;20183;-42
2020/12/25 08:16:43;;;;;;;;;;;;;;;-6.49;89.29;101043.37;1897916;74;20200;-41
2020/12/25 08:19:37;;;;;;;;;;;;;;;-6.47;89.17;101030.33;1895320;74;20802;-41
2020/12/25 08:22:08;;;;;;;;;;;;;;;-6.50;89.01;101030.17;1909147;74;20163;-40
2020/12/25 08:24:36;;;;;;;;;;;;;;;-6.53;88.99;101032.14;1910110;74;20453;-43
2020/12/25 08:27:04;;;;;;;;;;;;;;;-6.52;89.00;101030.08;1884556;74;20283;-41
2020/12/25 08:29:32;;;;;;;;;;;;;;;-6.51;88.99;101016.54;1892083;74;20284;-41
2020/12/25 08:32:09;;;;;;;;;;;;;;;-6.51;88.97;101011.84;1919884;74;20209;-39
2020/12/25 08:34:39;;;;;;;;;;;;;;;-6.53;88.93;101019.39;1899996;74;20300;-41
2020/12/25 08:37:11;;;;;;;;;;;;;;;-6.54;88.95;101010.37;1851784;74;20241;-37
2020/12/25 08:39:39;;;;;;;;;;;;;;;-6.53;89.02;101010.86;1901012;74;20270;-41
2020/12/25 08:42:09;;;;;;;;;;;;;;;-6.50;89.07;100998.30;1894098;74;20836;-42
2020/12/25 08:44:38;;;;;;;;;;;;;;;-6.47;89.12;100994.23;1885471;74;20152;-41
2020/12/25 08:47:10;;;;;;;;;;;;;;;-6.46;89.12;100973.44;1872458;74;20155;-38
2020/12/25 08:49:40;;;;;;;;;;;;;;;-6.45;89.23;100970.09;1881881;74;20250;-40
2020/12/25 08:52:22;;;;;;;;;;;;;;;-6.43;89.41;100963.81;1898760;74;20167;-41
2020/12/25 08:54:58;;;;;;;;;;;;;;;-6.44;89.52;100956.56;1894751;74;20195;-39
2020/12/25 08:57:25;;;;;;;;;;;;;;;-6.45;89.75;100961.17;1894244;74;20299;-42
2020/12/25 09:00:05;;;;;;;;;;;;;;;-6.44;89.97;100954.01;1899553;74;20181;-40
2020/12/25 09:02:32;;;;;;;;;;;;;;;-6.42;90.15;100947.30;1891117;74;20123;-41
2020/12/25 09:05:01;;;;;;;;;;;;;;;-6.39;90.39;100944.92;1899288;74;20282;-41
2020/12/25 09:07:29;;;;;;;;;;;;;;;-6.34;90.55;100941.34;1871313;74;20210;-41
2020/12/25 09:09:59;;;;;;;;;;;;;;;-6.28;90.74;100941.67;1882702;74;20217;-42
2020/12/25 09:12:30;;;;;;;;;;;;;;;-6.26;90.84;100929.89;1887831;75;20233;-42
2020/12/25 09:15:32;;;;;;;;;;;;;;;-6.23;91.00;100928.36;1846627;74;20212;-42
2020/12/25 09:18:01;;;;;;;;;;;;;;;-6.19;91.25;100918.83;1838984;74;20172;-41
2020/12/25 09:20:28;;;;;;;;;;;;;;;-6.15;91.47;100913.47;1898474;74;20167;-41
2020/12/25 09:22:56;;;;;;;;;;;;;;;-6.08;91.63;100911.33;1891189;74;20187;-41
2020/12/25 09:25:24;;;;;;;;;;;;;;;-6.05;91.78;100902.97;1892473;74;20193;-42
2020/12/25 09:27:52;;;;;;;;;;;;;;;-5.99;91.95;100904.56;1895020;74;20277;-40
2020/12/25 09:30:20;;;;;;;;;;;;;;;-5.94;92.11;100901.84;1903066;74;20268;-42
2020/12/25 09:32:48;;;;;;;;;;;;;;;-5.88;92.34;100889.80;1893670;74;20266;-39
2020/12/25 09:35:16;;;;;;;;;;;;;;;-5.84;92.54;100882.33;1894581;74;20314;-42
2020/12/25 09:37:43;;;;;;;;;;;;;;;-5.78;92.76;100868.63;1898415;74;20173;-42
2020/12/25 09:40:11;;;;;;;;;;;;;;;-5.73;92.96;100871.02;1905347;74;20427;-41
2020/12/25 09:42:39;;;;;;;;;;;;;;;-5.66;93.12;100859.04;1893234;74;20179;-40
2020/12/25 09:45:07;;;;;;;;;;;;;;;-5.56;93.22;100851.82;1899196;74;20124;-47
2020/12/25 09:47:34;;;;;;;;;;;;;;;-5.49;93.32;100848.77;1897522;74;20260;-41
2020/12/25 09:50:03;;;;;;;;;;;;;;;-5.42;93.37;100853.38;1884110;74;20265;-39
2020/12/25 09:52:30;;;;;;;;;;;;;;;-5.34;93.45;100854.64;1901742;74;20474;-42
2020/12/25 09:54:59;;;;;;;;;;;;;;;-5.24;93.51;100848.77;1889512;74;20214;-41
2020/12/25 09:57:26;;;;;;;;;;;;;;;-5.19;93.49;100841.75;1895776;74;20164;-41
2020/12/25 09:59:55;;;;;;;;;;;;;;;-5.14;93.53;100842.44;1892350;74;20134;-40
2020/12/25 10:02:22;;;;;;;;;;;;;;;-5.08;93.56;100831.23;1896430;74;20183;-42
2020/12/25 10:04:50;;;;;;;;;;;;;;;-5.02;93.56;100826.41;1886740;74;20259;-40
2020/12/25 10:07:18;;;;;;;;;;;;;;;-4.96;93.60;100822.86;1883191;74;20184;-41
2020/12/25 10:09:50;;;;;;;;;;;;;;;-4.90;93.63;100814.59;1887835;74;20686;-40
2020/12/25 10:12:18;;;;;;;;;;;;;;;-4.84;93.70;100808.48;1893456;74;20579;-42
2020/12/25 10:14:46;;;;;;;;;;;;;;;-4.80;93.76;100795.45;1894994;74;20174;-42
2020/12/25 10:17:14;;;;;;;;;;;;;;;-4.77;93.87;100787.51;1885415;74;20294;-41
2020/12/25 10:19:41;;;;;;;;;;;;;;;-4.74;93.97;100788.06;1900837;74;20266;-42
2020/12/25 10:22:09;;;;;;;;;;;;;;;-4.71;94.06;100780.52;1890465;74;20527;-40
2020/12/25 10:26:51;;;;;;;;;;;;;;;-4.59;94.24;100770.43;1890696;74;20296;-41
2020/12/25 10:29:19;;;;;;;;;;;;;;;-4.60;94.31;100763.59;1865057;75;20325;-42
2020/12/25 10:31:48;;;;;;;;;;;;;;;-4.56;94.39;100757.80;1870631;75;20134;-40
2020/12/25 10:34:15;;;;;;;;;;;;;;;-4.51;94.46;100746.07;1872459;75;20301;-41
2020/12/25 10:36:44;;;;;;;;;;;;;;;-4.43;94.55;100746.02;1870249;75;20194;-42
2020/12/25 10:39:12;;;;;;;;;;;;;;;-4.38;94.67;100739.81;1867936;75;20189;-45
2020/12/25 10:41:40;;;;;;;;;;;;;;;-4.29;94.81;100734.22;1868294;75;20181;-41
2020/12/25 10:44:08;;;;;;;;;;;;;;;-4.21;94.98;100730.31;1868253;75;20190;-41
2020/12/25 10:46:36;;;;;;;;;;;;;;;-4.13;95.15;100725.09;1872035;75;20191;-40
2020/12/25 10:49:04;;;;;;;;;;;;;;;-4.03;95.34;100716.59;1868904;75;20247;-43
2020/12/25 10:51:32;;;;;;;;;;;;;;;-3.91;95.46;100717.91;1869059;75;20182;-42
2020/12/25 10:54:00;;;;;;;;;;;;;;;-3.81;95.66;100719.65;1866887;75;20167;-41
2020/12/25 10:56:32;;;;;;;;;;;;;;;-3.70;95.87;100709.83;1871516;75;20277;-43
2020/12/25 10:58:58;;;;;;;;;;;;;;;-3.59;96.11;100706.41;1871129;75;20308;-42
2020/12/25 11:01:29;;;;;;;;;;;;;;;-3.49;96.36;100707.25;1869537;75;20187;-41
2020/12/25 11:03:58;;;;;;;;;;;;;;;-3.35;96.69;100704.39;1870122;75;20130;-41
2020/12/25 11:06:37;;;;;;;;;;;;;;;-3.23;96.97;100698.48;1869722;75;20173;-42
2020/12/25 11:09:07;;;;;;;;;;;;;;;-3.10;97.29;100699.83;1873911;75;20180;-42
2020/12/25 11:11:40;;;;;;;;;;;;;;;-2.96;97.63;100696.50;1871217;75;20138;-42
2020/12/25 11:14:08;;;;;;;;;;;;;;;-2.82;97.95;100690.16;1875667;75;20116;-43
2020/12/25 11:16:36;;;;;;;;;;;;;;;-2.72;98.21;100682.40;1869344;75;20582;-40
2020/12/25 11:19:09;;;;;;;;;;;;;;;-2.62;98.47;100682.77;1867947;75;20221;-42
2020/12/25 11:21:38;;;;;;;;;;;;;;;-2.55;98.72;100679.61;1867475;75;20313;-43
2020/12/25 11:24:07;;;;;;;;;;;;;;;-2.43;99.08;100676.18;1867926;75;20261;-44
2020/12/25 11:26:35;;;;;;;;;;;;;;;-2.31;99.42;100670.63;1868628;75;20188;-42
2020/12/25 11:29:07;;;;;;;;;;;;;;;-2.15;99.83;100670.71;1870017;75;21037;-40
2020/12/25 11:31:36;;;;;;;;;;;;;;;-2.05;100.00;100663.39;1869039;75;20210;-42
2020/12/25 11:34:04;;;;;;;;;;;;;;;-1.93;100.00;100653.04;1871144;75;20171;-50
2020/12/25 11:36:36;;;;;;;;;;;;;;;-1.86;100.00;100654.98;1868101;75;20197;-41
2020/12/25 11:39:05;;;;;;;;;;;;;;;-1.81;100.00;100653.43;1881194;75;20180;-41
2020/12/25 11:41:33;;;;;;;;;;;;;;;-1.76;100.00;100645.45;1870904;75;20207;-42
2020/12/25 11:44:05;;;;;;;;;;;;;;;-1.70;100.00;100643.07;1870260;75;20273;-42
2020/12/25 11:46:30;;;;;;;;;;;;;;;-1.64;100.00;100657.39;1873363;75;20309;-42
2020/12/25 11:48:59;;;;;;;;;;;;;;;-1.60;100.00;100650.27;1869150;75;20281;-39
2020/12/25 11:51:28;;;;;;;;;;;;;;;-1.56;100.00;100645.66;1867321;75;20172;-39
2020/12/25 11:53:56;;;;;;;;;;;;;;;-1.52;100.00;100640.22;1868916;75;20680;-42
2020/12/25 11:56:26;;;;;;;;;;;;;;;-1.51;100.00;100622.25;1869247;75;20396;-41
2020/12/25 11:58:54;;;;;;;;;;;;;;;-1.50;100.00;100620.14;1868651;75;20534;-41
2020/12/25 12:01:22;;;;;;;;;;;;;;;-1.49;100.00;100627.45;1870733;75;20281;-41
2020/12/25 12:03:52;;;;;;;;;;;;;;;-1.51;100.00;100617.11;1817777;75;20807;-41
2020/12/25 12:06:24;;;;;;;;;;;;;;;-1.51;100.00;100625.27;1876048;75;20196;-41
2020/12/25 12:08:52;;;;;;;;;;;;;;;-1.53;100.00;100620.48;1872876;75;20455;-42
2020/12/25 12:11:21;;;;;;;;;;;;;;;-1.55;100.00;100623.41;1869221;75;20197;-41
2020/12/25 12:13:49;;;;;;;;;;;;;;;-1.55;100.00;100619.14;1873585;75;20222;-39
2020/12/25 12:16:20;;;;;;;;;;;;;;;-1.55;100.00;100619.55;1875725;75;20116;-42
2020/12/25 12:18:50;;;;;;;;;;;;;;;-1.56;100.00;100628.95;1869294;75;20267;-41
2020/12/25 12:21:20;;;;;;;;;;;;;;;-1.57;100.00;100631.06;1866465;75;20221;-41
2020/12/25 12:23:47;;;;;;;;;;;;;;;-1.57;100.00;100632.76;1871009;75;20208;-42
2020/12/25 12:26:15;;;;;;;;;;;;;;;-1.57;100.00;100628.90;1867980;75;20126;-40
2020/12/25 12:28:43;;;;;;;;;;;;;;;-1.58;100.00;100622.05;1873742;75;20299;-40
2020/12/25 12:31:13;;;;;;;;;;;;;;;-1.58;100.00;100620.77;1869102;75;20190;-42
2020/12/25 12:33:41;;;;;;;;;;;;;;;-1.59;100.00;100612.59;1870311;75;20185;-39
2020/12/25 12:36:09;;;;;;;;;;;;;;;-1.62;100.00;100609.09;1866628;75;20237;-41
2020/12/25 12:38:37;;;;;;;;;;;;;;;-1.64;100.00;100609.85;1866434;75;20198;-41
2020/12/25 12:41:05;;;;;;;;;;;;;;;-1.66;100.00;100611.52;1871590;75;20217;-41
2020/12/25 12:43:33;;;;;;;;;;;;;;;-1.68;100.00;100595.17;1868727;75;20270;-41
2020/12/25 12:46:03;;;;;;;;;;;;;;;-1.69;100.00;100599.44;1869242;75;20293;-42
2020/12/25 12:48:31;;;;;;;;;;;;;;;-1.68;100.00;100590.91;1870012;75;20209;-43
2020/12/25 12:50:59;;;;;;;;;;;;;;;-1.66;100.00;100593.13;1868765;75;20253;-41